Landsort, Sweden

4:16 PM CET on December 27, 2014 (GMT +0100)
Skavsta | Change Station
CLOSE
Current Station
Airport
Location: Nykoping Skavsta,
Elevation: 141 ft
Nearby Weather Stations

Elev 141 ft 58.79 °N, 16.91 °E | Updated 26 minutes ago

Clear
Clear
16 °F
Feels Like 5 °F
N
8
Wind Variable Wind from NW

Today
High -- | Low -- °F
--% Chance of Precip.
Yesterday
High -- | Low -- °F
Precip. -- in
8:40 AM 2:58 PM
Waxing Crescent, 37% visible
Pressure 29.98 in
Visibility -9999.0 miles
Clouds
Windchill 5 °F
Dew Point 12 °F
Humidity 86%
Rainfall 0.00 in
Snow Depth Not available.
UV Not available.
Pollen Not available.
Air Quality Not available.
Flu Activity Not available.
METAR ESKN 271450Z 32007KT CAVOK M09/M11 Q1015 R26/710166

More Conditions Fewer Conditions

Pressure 29.98 in
Visibility -9999.0 miles
Clouds
Windchill 5 °F
Dew Point 12 °F
Humidity 86%
Rainfall 0.00 in
Snow Depth Not available.
UV Not available.
Pollen Not available.
Air Quality Not available.
Flu Activity Not available.
METAR ESKN 271450Z 32007KT CAVOK M09/M11 Q1015 R26/710166

More Conditions Fewer Conditions

10-Day Weather Forecast

Almanac

Astronomy

Dec. 27, 2014 Rise Set
Actual Time
Civil Twilight
Nautical Twilight
Astronomical Twilight
Moon
Length of Visible Light
Length of Day
Tomorrow will be .
, % of the Moon is Illuminated

Today's Extremes

Country Highs Country Lows

Community

WunderPhotos

Upload Photos

1,780,927 photos uploaded!

WunderBlogs® & News

Nearby

Air Quality

  Air Quality AQ Index Pollutant
Not available.

Snow Depth

Station Depth Elevation

Earthquake Activity

City Distance Mag. Time & Date
Minimum magnitude displayed is 2.5.

Coastal Water Temperatures

Place Temperature

Nearby Weather Stations